sensor_id;sensor_type;location;lat;lon;timestamp;pressure;altitude;pressure_sealevel;temperature;humidity
49611;BME280;35515;48.766;9.176;2023-01-10T00:00:20;98049.00;;;6.27;88.63
49611;BME280;35515;48.766;9.176;2023-01-10T00:02:47;98044.34;;;6.35;87.58
49611;BME280;35515;48.766;9.176;2023-01-10T00:05:14;98057.78;;;6.35;87.88
49611;BME280;35515;48.766;9.176;2023-01-10T00:07:41;98053.53;;;6.41;86.77
49611;BME280;35515;48.766;9.176;2023-01-10T00:10:08;98051.78;;;6.33;88.11
49611;BME280;35515;48.766;9.176;2023-01-10T00:12:35;98051.25;;;6.60;86.13
49611;BME280;35515;48.766;9.176;2023-01-10T00:15:21;98050.53;;;6.51;85.45
49611;BME280;35515;48.766;9.176;2023-01-10T00:17:48;98058.31;;;6.46;85.33
49611;BME280;35515;48.766;9.176;2023-01-10T00:20:15;98069.13;;;6.31;86.60
49611;BME280;35515;48.766;9.176;2023-01-10T00:22:41;98063.25;;;6.42;85.37
49611;BME280;35515;48.766;9.176;2023-01-10T00:25:09;98068.28;;;6.30;86.78
49611;BME280;35515;48.766;9.176;2023-01-10T00:27:35;98077.13;;;6.24;87.68
49611;BME280;35515;48.766;9.176;2023-01-10T00:30:03;98069.56;;;6.49;84.85
49611;BME280;35515;48.766;9.176;2023-01-10T00:32:39;98083.59;;;6.30;85.96
49611;BME280;35515;48.766;9.176;2023-01-10T00:35:06;98090.53;;;6.39;86.62
49611;BME280;35515;48.766;9.176;2023-01-10T00:37:35;98097.59;;;6.40;86.73
49611;BME280;35515;48.766;9.176;2023-01-10T00:40:03;98104.47;;;6.28;87.33
49611;BME280;35515;48.766;9.176;2023-01-10T00:42:31;98099.09;;;6.28;87.93
49611;BME280;35515;48.766;9.176;2023-01-10T00:45:16;98102.44;;;6.30;87.32
49611;BME280;35515;48.766;9.176;2023-01-10T00:47:45;98103.72;;;6.34;87.03
49611;BME280;35515;48.766;9.176;2023-01-10T00:50:11;98109.00;;;6.42;86.94
49611;BME280;35515;48.766;9.176;2023-01-10T00:52:38;98114.78;;;6.09;88.51
49611;BME280;35515;48.766;9.176;2023-01-10T00:55:06;98119.97;;;6.26;87.53
49611;BME280;35515;48.766;9.176;2023-01-10T00:57:32;98123.78;;;6.16;88.21
49611;BME280;35515;48.766;9.176;2023-01-10T00:59:59;98122.28;;;6.29;87.78
49611;BME280;35515;48.766;9.176;2023-01-10T01:02:25;98121.38;;;6.22;88.72
49611;BME280;35515;48.766;9.176;2023-01-10T01:04:53;98124.44;;;6.18;89.50
49611;BME280;35515;48.766;9.176;2023-01-10T01:07:20;98134.31;;;6.33;88.24
49611;BME280;35515;48.766;9.176;2023-01-10T01:09:46;98139.91;;;6.31;88.35
49611;BME280;35515;48.766;9.176;2023-01-10T01:12:30;98144.66;;;6.29;89.22
49611;BME280;35515;48.766;9.176;2023-01-10T01:14:56;98145.56;;;6.36;88.42
49611;BME280;35515;48.766;9.176;2023-01-10T01:17:23;98164.22;;;6.23;89.44
49611;BME280;35515;48.766;9.176;2023-01-10T01:19:49;98161.09;;;5.96;91.60
49611;BME280;35515;48.766;9.176;2023-01-10T01:22:18;98175.69;;;6.02;91.42
49611;BME280;35515;48.766;9.176;2023-01-10T01:24:44;98175.69;;;6.02;91.54
49611;BME280;35515;48.766;9.176;2023-01-10T01:27:11;98185.72;;;6.08;90.83
49611;BME280;35515;48.766;9.176;2023-01-10T01:29:37;98189.34;;;6.00;91.36
49611;BME280;35515;48.766;9.176;2023-01-10T01:32:04;98188.31;;;6.16;89.42
49611;BME280;35515;48.766;9.176;2023-01-10T01:34:30;98205.56;;;6.22;88.70
49611;BME280;35515;48.766;9.176;2023-01-10T01:36:57;98196.88;;;6.05;89.93
49611;BME280;35515;48.766;9.176;2023-01-10T01:39:25;98211.03;;;5.99;90.73
49611;BME280;35515;48.766;9.176;2023-01-10T01:41:51;98209.66;;;6.03;90.79
49611;BME280;35515;48.766;9.176;2023-01-10T01:44:29;98200.28;;;6.29;89.17
49611;BME280;35515;48.766;9.176;2023-01-10T01:47:05;98207.72;;;6.12;88.02
49611;BME280;35515;48.766;9.176;2023-01-10T01:49:34;98231.63;;;6.07;89.12
49611;BME280;35515;48.766;9.176;2023-01-10T01:52:06;98226.00;;;6.16;88.85
49611;BME280;35515;48.766;9.176;2023-01-10T01:54:36;98235.16;;;6.22;87.73
49611;BME280;35515;48.766;9.176;2023-01-10T01:57:06;98250.94;;;5.87;90.13
49611;BME280;35515;48.766;9.176;2023-01-10T01:59:36;98252.41;;;6.13;89.68
49611;BME280;35515;48.766;9.176;2023-01-10T02:02:06;98256.41;;;5.94;91.05
49611;BME280;35515;48.766;9.176;2023-01-10T02:04:39;98255.56;;;6.16;91.04
49611;BME280;35515;48.766;9.176;2023-01-10T02:07:08;98259.09;;;5.94;89.46
49611;BME280;35515;48.766;9.176;2023-01-10T02:09:40;98260.19;;;5.84;90.83
49611;BME280;35515;48.766;9.176;2023-01-10T02:12:09;98271.00;;;5.76;91.71
49611;BME280;35515;48.766;9.176;2023-01-10T02:14:37;98278.66;;;5.88;90.82
49611;BME280;35515;48.766;9.176;2023-01-10T02:17:04;98290.56;;;5.93;91.46
49611;BME280;35515;48.766;9.176;2023-01-10T02:19:42;98304.06;;;6.08;88.11
49611;BME280;35515;48.766;9.176;2023-01-10T02:22:48;98307.88;;;5.91;90.17
49611;BME280;35515;48.766;9.176;2023-01-10T02:25:45;98313.16;;;6.07;91.08
49611;BME280;35515;48.766;9.176;2023-01-10T02:28:39;98318.03;;;5.80;89.99
49611;BME280;35515;48.766;9.176;2023-01-10T02:31:23;98331.53;;;5.72;91.71
49611;BME280;35515;48.766;9.176;2023-01-10T02:33:59;98343.97;;;5.73;91.81
49611;BME280;35515;48.766;9.176;2023-01-10T02:36:37;98338.47;;;6.13;91.88
49611;BME280;35515;48.766;9.176;2023-01-10T02:39:10;98350.16;;;5.74;92.33
49611;BME280;35515;48.766;9.176;2023-01-10T02:41:52;98352.78;;;5.59;92.66
49611;BME280;35515;48.766;9.176;2023-01-10T02:44:28;98351.78;;;5.83;92.75
49611;BME280;35515;48.766;9.176;2023-01-10T02:46:56;98348.78;;;5.46;93.32
49611;BME280;35515;48.766;9.176;2023-01-10T02:49:24;98363.25;;;5.45;96.37
49611;BME280;35515;48.766;9.176;2023-01-10T02:51:50;98356.78;;;5.63;93.20
49611;BME280;35515;48.766;9.176;2023-01-10T02:54:19;98350.16;;;5.50;92.78
49611;BME280;35515;48.766;9.176;2023-01-10T03:00:02;98369.31;;;5.39;92.24
49611;BME280;35515;48.766;9.176;2023-01-10T03:02:43;98371.03;;;5.63;90.26
49611;BME280;35515;48.766;9.176;2023-01-10T03:05:24;98371.91;;;5.64;90.95
49611;BME280;35515;48.766;9.176;2023-01-10T03:08:00;98383.53;;;5.56;93.04
49611;BME280;35515;48.766;9.176;2023-01-10T03:10:35;98385.34;;;5.56;92.30
49611;BME280;35515;48.766;9.176;2023-01-10T03:13:06;98391.66;;;5.71;90.80
49611;BME280;35515;48.766;9.176;2023-01-10T03:15:36;98396.38;;;5.69;91.44
49611;BME280;35515;48.766;9.176;2023-01-10T03:18:08;98410.22;;;5.58;91.84
49611;BME280;35515;48.766;9.176;2023-01-10T03:20:38;98418.69;;;5.38;92.37
49611;BME280;35515;48.766;9.176;2023-01-10T03:23:08;98421.56;;;5.36;91.56
49611;BME280;35515;48.766;9.176;2023-01-10T03:25:38;98430.25;;;5.47;90.40
49611;BME280;35515;48.766;9.176;2023-01-10T03:28:07;98437.69;;;5.36;90.52
49611;BME280;35515;48.766;9.176;2023-01-10T03:30:40;98437.59;;;5.61;88.88
49611;BME280;35515;48.766;9.176;2023-01-10T03:33:10;98458.13;;;5.46;90.01
49611;BME280;35515;48.766;9.176;2023-01-10T03:35:55;98456.81;;;5.42;90.79
49611;BME280;35515;48.766;9.176;2023-01-10T03:38:27;98462.19;;;5.42;90.90
49611;BME280;35515;48.766;9.176;2023-01-10T03:41:00;98467.22;;;5.36;91.05
49611;BME280;35515;48.766;9.176;2023-01-10T03:43:36;98472.41;;;5.55;90.96
49611;BME280;35515;48.766;9.176;2023-01-10T03:46:26;98468.63;;;5.72;89.37
49611;BME280;35515;48.766;9.176;2023-01-10T03:48:56;98470.63;;;5.70;88.64
49611;BME280;35515;48.766;9.176;2023-01-10T03:51:26;98472.03;;;5.58;90.71
49611;BME280;35515;48.766;9.176;2023-01-10T03:53:53;98479.75;;;5.61;90.47
49611;BME280;35515;48.766;9.176;2023-01-10T03:56:20;98482.13;;;5.47;90.43
49611;BME280;35515;48.766;9.176;2023-01-10T03:58:47;98481.94;;;5.65;90.40
49611;BME280;35515;48.766;9.176;2023-01-10T04:01:13;98498.78;;;5.43;90.49
49611;BME280;35515;48.766;9.176;2023-01-10T04:03:41;98490.59;;;5.36;90.95
49611;BME280;35515;48.766;9.176;2023-01-10T04:06:07;98493.50;;;5.66;91.38
49611;BME280;35515;48.766;9.176;2023-01-10T04:08:35;98509.97;;;5.63;90.81
49611;BME280;35515;48.766;9.176;2023-01-10T04:11:02;98501.94;;;5.55;91.88
49611;BME280;35515;48.766;9.176;2023-01-10T04:13:29;98516.59;;;5.35;91.37
49611;BME280;35515;48.766;9.176;2023-01-10T04:15:58;98518.75;;;5.48;91.33
49611;BME280;35515;48.766;9.176;2023-01-10T04:18:25;98513.44;;;5.32;92.34
49611;BME280;35515;48.766;9.176;2023-01-10T04:20:51;98523.63;;;5.45;92.52
49611;BME280;35515;48.766;9.176;2023-01-10T04:23:18;98531.13;;;5.66;91.34
49611;BME280;35515;48.766;9.176;2023-01-10T04:25:46;98537.19;;;5.60;90.87
49611;BME280;35515;48.766;9.176;2023-01-10T04:28:13;98546.22;;;5.75;90.30
49611;BME280;35515;48.766;9.176;2023-01-10T04:30:39;98545.44;;;5.58;90.25
49611;BME280;35515;48.766;9.176;2023-01-10T04:33:06;98545.66;;;5.32;91.25
49611;BME280;35515;48.766;9.176;2023-01-10T04:35:34;98541.97;;;5.41;91.71
49611;BME280;35515;48.766;9.176;2023-01-10T04:38:01;98558.88;;;5.66;89.79
49611;BME280;35515;48.766;9.176;2023-01-10T04:40:27;98569.06;;;5.79;89.12
49611;BME280;35515;48.766;9.176;2023-01-10T04:42:55;98567.59;;;5.68;88.80
49611;BME280;35515;48.766;9.176;2023-01-10T04:45:21;98579.81;;;5.79;87.19
49611;BME280;35515;48.766;9.176;2023-01-10T04:47:49;98578.56;;;5.34;89.46
49611;BME280;35515;48.766;9.176;2023-01-10T04:50:16;98586.56;;;5.67;88.21
49611;BME280;35515;48.766;9.176;2023-01-10T04:52:43;98593.97;;;5.65;88.61
49611;BME280;35515;48.766;9.176;2023-01-10T04:55:09;98603.06;;;5.47;88.75
49611;BME280;35515;48.766;9.176;2023-01-10T04:57:36;98611.59;;;5.67;87.26
49611;BME280;35515;48.766;9.176;2023-01-10T05:00:05;98607.41;;;5.57;88.39
49611;BME280;35515;48.766;9.176;2023-01-10T05:02:32;98617.66;;;5.69;87.11
49611;BME280;35515;48.766;9.176;2023-01-10T05:04:58;98618.16;;;5.57;88.23
49611;BME280;35515;48.766;9.176;2023-01-10T05:07:25;98621.19;;;5.62;88.52
49611;BME280;35515;48.766;9.176;2023-01-10T05:09:51;98616.81;;;5.77;86.93
49611;BME280;35515;48.766;9.176;2023-01-10T05:12:18;98618.34;;;5.47;88.97
49611;BME280;35515;48.766;9.176;2023-01-10T05:14:44;98628.09;;;5.56;88.07
49611;BME280;35515;48.766;9.176;2023-01-10T05:17:12;98622.38;;;5.43;87.28
49611;BME280;35515;48.766;9.176;2023-01-10T05:19:39;98623.88;;;5.37;87.34
49611;BME280;35515;48.766;9.176;2023-01-10T05:22:05;98629.94;;;5.47;87.39
49611;BME280;35515;48.766;9.176;2023-01-10T05:24:32;98630.44;;;5.18;88.52
49611;BME280;35515;48.766;9.176;2023-01-10T05:26:58;98640.00;;;5.37;88.48
49611;BME280;35515;48.766;9.176;2023-01-10T05:29:24;98648.75;;;5.47;86.97
49611;BME280;35515;48.766;9.176;2023-01-10T05:31:51;98654.28;;;5.46;85.30
49611;BME280;35515;48.766;9.176;2023-01-10T05:34:19;98654.13;;;5.31;88.16
49611;BME280;35515;48.766;9.176;2023-01-10T05:36:46;98659.16;;;5.67;85.70
49611;BME280;35515;48.766;9.176;2023-01-10T05:39:12;98661.00;;;5.58;85.46
49611;BME280;35515;48.766;9.176;2023-01-10T05:41:39;98668.88;;;5.51;85.76
49611;BME280;35515;48.766;9.176;2023-01-10T05:44:05;98664.88;;;5.72;83.89
49611;BME280;35515;48.766;9.176;2023-01-10T05:46:32;98676.28;;;5.74;83.71
49611;BME280;35515;48.766;9.176;2023-01-10T05:48:59;98667.56;;;5.47;84.83
49611;BME280;35515;48.766;9.176;2023-01-10T05:51:26;98677.78;;;5.68;83.89
49611;BME280;35515;48.766;9.176;2023-01-10T05:53:53;98684.00;;;5.61;84.74
49611;BME280;35515;48.766;9.176;2023-01-10T05:56:19;98694.44;;;5.64;84.57
49611;BME280;35515;48.766;9.176;2023-01-10T05:58:46;98691.38;;;5.83;82.46
49611;BME280;35515;48.766;9.176;2023-01-10T06:01:12;98709.19;;;5.93;82.92
49611;BME280;35515;48.766;9.176;2023-01-10T06:03:39;98712.91;;;5.75;82.19
49611;BME280;35515;48.766;9.176;2023-01-10T06:06:06;98700.97;;;5.78;83.25
49611;BME280;35515;48.766;9.176;2023-01-10T06:08:34;98710.19;;;5.83;82.82
49611;BME280;35515;48.766;9.176;2023-01-10T06:11:01;98713.56;;;5.94;82.02
49611;BME280;35515;48.766;9.176;2023-01-10T06:13:28;98714.78;;;5.66;82.98
49611;BME280;35515;48.766;9.176;2023-01-10T06:15:54;98715.94;;;5.64;82.56
49611;BME280;35515;48.766;9.176;2023-01-10T06:18:21;98717.63;;;5.73;82.84
49611;BME280;35515;48.766;9.176;2023-01-10T06:20:48;98722.31;;;5.63;82.22
49611;BME280;35515;48.766;9.176;2023-01-10T06:23:14;98721.81;;;5.67;81.23
49611;BME280;35515;48.766;9.176;2023-01-10T06:25:42;98727.34;;;5.58;81.51
49611;BME280;35515;48.766;9.176;2023-01-10T06:28:11;98731.03;;;5.57;81.99
49611;BME280;35515;48.766;9.176;2023-01-10T06:30:39;98732.38;;;5.52;82.28
49611;BME280;35515;48.766;9.176;2023-01-10T06:33:08;98728.84;;;5.85;79.59
49611;BME280;35515;48.766;9.176;2023-01-10T06:35:35;98739.09;;;6.14;77.93
49611;BME280;35515;48.766;9.176;2023-01-10T06:38:02;98744.31;;;6.08;77.84
49611;BME280;35515;48.766;9.176;2023-01-10T06:40:28;98752.56;;;5.73;79.29
49611;BME280;35515;48.766;9.176;2023-01-10T06:42:56;98747.84;;;5.75;79.40
49611;BME280;35515;48.766;9.176;2023-01-10T06:45:23;98763.28;;;5.65;79.89
49611;BME280;35515;48.766;9.176;2023-01-10T06:47:49;98758.25;;;5.53;80.55
49611;BME280;35515;48.766;9.176;2023-01-10T06:50:16;98770.88;;;5.61;80.86
49611;BME280;35515;48.766;9.176;2023-01-10T06:52:43;98770.03;;;6.10;76.83
49611;BME280;35515;48.766;9.176;2023-01-10T06:55:09;98773.44;;;6.04;77.01
49611;BME280;35515;48.766;9.176;2023-01-10T06:57:36;98775.59;;;5.84;78.64
49611;BME280;35515;48.766;9.176;2023-01-10T07:00:06;98787.66;;;5.63;80.63
49611;BME280;35515;48.766;9.176;2023-01-10T07:02:36;98792.69;;;5.58;80.11
49611;BME280;35515;48.766;9.176;2023-01-10T07:05:03;98797.94;;;5.76;79.22
49611;BME280;35515;48.766;9.176;2023-01-10T07:07:29;98795.91;;;5.70;79.93
49611;BME280;35515;48.766;9.176;2023-01-10T07:09:56;98803.78;;;5.72;80.47
49611;BME280;35515;48.766;9.176;2023-01-10T07:12:24;98801.97;;;5.89;79.07
49611;BME280;35515;48.766;9.176;2023-01-10T07:14:50;98809.69;;;5.83;78.68
49611;BME280;35515;48.766;9.176;2023-01-10T07:17:18;98813.09;;;6.02;78.42
49611;BME280;35515;48.766;9.176;2023-01-10T07:19:44;98831.25;;;6.08;77.85
49611;BME280;35515;48.766;9.176;2023-01-10T07:22:11;98832.41;;;6.30;75.08
49611;BME280;35515;48.766;9.176;2023-01-10T07:24:37;98845.19;;;6.03;76.11
49611;BME280;35515;48.766;9.176;2023-01-10T07:27:04;98844.34;;;5.95;75.90
49611;BME280;35515;48.766;9.176;2023-01-10T07:29:30;98843.63;;;5.76;77.33
49611;BME280;35515;48.766;9.176;2023-01-10T07:31:57;98837.09;;;5.95;75.74
49611;BME280;35515;48.766;9.176;2023-01-10T07:34:25;98836.09;;;5.96;76.79
49611;BME280;35515;48.766;9.176;2023-01-10T07:36:51;98829.88;;;5.96;76.78
49611;BME280;35515;48.766;9.176;2023-01-10T07:39:18;98833.94;;;6.08;75.91
49611;BME280;35515;48.766;9.176;2023-01-10T07:41:46;98825.53;;;6.03;76.42
49611;BME280;35515;48.766;9.176;2023-01-10T07:44:12;98835.28;;;6.04;75.35
49611;BME280;35515;48.766;9.176;2023-01-10T07:46:39;98853.22;;;5.95;76.09
49611;BME280;35515;48.766;9.176;2023-01-10T07:49:05;98858.81;;;6.02;75.18
49611;BME280;35515;48.766;9.176;2023-01-10T07:51:33;98871.44;;;6.10;75.44
49611;BME280;35515;48.766;9.176;2023-01-10T07:53:59;98877.16;;;6.07;75.26
49611;BME280;35515;48.766;9.176;2023-01-10T07:56:26;98880.34;;;6.02;75.29
49611;BME280;35515;48.766;9.176;2023-01-10T07:58:53;98881.69;;;5.98;75.66
49611;BME280;35515;48.766;9.176;2023-01-10T08:01:20;98882.63;;;5.97;76.02
49611;BME280;35515;48.766;9.176;2023-01-10T08:03:46;98899.09;;;5.85;76.41
49611;BME280;35515;48.766;9.176;2023-01-10T08:06:13;98897.06;;;5.79;77.50
49611;BME280;35515;48.766;9.176;2023-01-10T08:08:41;98899.47;;;5.91;76.70
49611;BME280;35515;48.766;9.176;2023-01-10T08:11:07;98897.00;;;6.06;75.91
49611;BME280;35515;48.766;9.176;2023-01-10T08:13:34;98910.09;;;6.00;76.13
49611;BME280;35515;48.766;9.176;2023-01-10T08:16:03;98886.00;;;5.91;76.72
49611;BME280;35515;48.766;9.176;2023-01-10T08:18:30;98899.13;;;5.94;76.49
49611;BME280;35515;48.766;9.176;2023-01-10T08:20:56;98902.78;;;5.76;77.08
49611;BME280;35515;48.766;9.176;2023-01-10T08:23:23;98905.47;;;5.68;78.18
49611;BME280;35515;48.766;9.176;2023-01-10T08:25:51;98918.56;;;5.79;77.09
49611;BME280;35515;48.766;9.176;2023-01-10T08:28:18;98922.94;;;5.72;77.94
49611;BME280;35515;48.766;9.176;2023-01-10T08:30:45;98915.53;;;5.74;77.32
49611;BME280;35515;48.766;9.176;2023-01-10T08:33:11;98930.56;;;5.93;76.08
49611;BME280;35515;48.766;9.176;2023-01-10T08:35:39;98929.78;;;6.09;75.71
49611;BME280;35515;48.766;9.176;2023-01-10T08:38:07;98935.81;;;6.03;75.82
49611;BME280;35515;48.766;9.176;2023-01-10T08:40:33;98952.06;;;5.93;77.00
49611;BME280;35515;48.766;9.176;2023-01-10T08:43:04;98937.78;;;5.93;76.76
49611;BME280;35515;48.766;9.176;2023-01-10T08:45:31;98928.09;;;6.16;75.32
49611;BME280;35515;48.766;9.176;2023-01-10T08:47:57;98938.78;;;5.92;75.83
49611;BME280;35515;48.766;9.176;2023-01-10T08:50:24;98937.13;;;5.91;76.86
49611;BME280;35515;48.766;9.176;2023-01-10T08:52:51;98948.44;;;6.11;75.59
49611;BME280;35515;48.766;9.176;2023-01-10T08:55:18;98944.88;;;6.02;77.04
49611;BME280;35515;48.766;9.176;2023-01-10T08:57:45;98939.63;;;5.84;77.23
49611;BME280;35515;48.766;9.176;2023-01-10T09:00:14;98957.34;;;6.03;76.34
49611;BME280;35515;48.766;9.176;2023-01-10T09:02:40;98954.13;;;6.08;76.14
49611;BME280;35515;48.766;9.176;2023-01-10T09:05:08;98949.97;;;6.05;76.06
49611;BME280;35515;48.766;9.176;2023-01-10T09:07:34;98962.75;;;6.19;75.13
49611;BME280;35515;48.766;9.176;2023-01-10T09:10:01;98973.31;;;6.13;76.12
49611;BME280;35515;48.766;9.176;2023-01-10T09:12:28;98964.09;;;6.24;75.70
49611;BME280;35515;48.766;9.176;2023-01-10T09:15:13;98964.59;;;6.19;75.80
49611;BME280;35515;48.766;9.176;2023-01-10T09:17:40;98975.50;;;6.09;77.25
49611;BME280;35515;48.766;9.176;2023-01-10T09:20:08;98977.72;;;5.79;78.49
49611;BME280;35515;48.766;9.176;2023-01-10T09:22:35;98985.78;;;5.71;79.06
49611;BME280;35515;48.766;9.176;2023-01-10T09:25:01;98984.81;;;5.80;79.40
49611;BME280;35515;48.766;9.176;2023-01-10T09:27:28;98987.88;;;5.94;78.32
49611;BME280;35515;48.766;9.176;2023-01-10T09:29:55;98991.66;;;6.17;77.45
49611;BME280;35515;48.766;9.176;2023-01-10T09:32:23;98997.34;;;6.14;77.96
49611;BME280;35515;48.766;9.176;2023-01-10T09:34:49;98999.72;;;6.09;78.19
49611;BME280;35515;48.766;9.176;2023-01-10T09:37:16;99012.16;;;6.10;78.40
49611;BME280;35515;48.766;9.176;2023-01-10T09:39:42;99009.38;;;5.94;79.11
49611;BME280;35515;48.766;9.176;2023-01-10T09:42:26;99012.31;;;6.09;78.39
49611;BME280;35515;48.766;9.176;2023-01-10T09:45:02;99015.00;;;6.09;79.71
49611;BME280;35515;48.766;9.176;2023-01-10T09:47:38;99010.34;;;5.84;81.15
49611;BME280;35515;48.766;9.176;2023-01-10T09:50:13;99019.91;;;6.05;79.92
49611;BME280;35515;48.766;9.176;2023-01-10T09:52:47;99021.63;;;6.23;78.77
49611;BME280;35515;48.766;9.176;2023-01-10T09:55:19;99035.94;;;5.97;80.46
49611;BME280;35515;48.766;9.176;2023-01-10T09:57:50;99033.84;;;6.09;81.32
49611;BME280;35515;48.766;9.176;2023-01-10T10:00:20;99039.94;;;6.27;79.37
49611;BME280;35515;48.766;9.176;2023-01-10T10:02:50;99043.16;;;6.23;80.22
49611;BME280;35515;48.766;9.176;2023-01-10T10:05:20;99033.66;;;6.10;81.78
49611;BME280;35515;48.766;9.176;2023-01-10T10:07:51;99037.38;;;6.09;81.03
49611;BME280;35515;48.766;9.176;2023-01-10T10:10:22;99030.34;;;6.25;81.00
49611;BME280;35515;48.766;9.176;2023-01-10T10:12:59;99025.31;;;6.22;80.72
49611;BME280;35515;48.766;9.176;2023-01-10T10:15:34;99019.56;;;6.08;81.23
49611;BME280;35515;48.766;9.176;2023-01-10T10:18:13;99019.28;;;6.28;81.28
49611;BME280;35515;48.766;9.176;2023-01-10T10:20:50;99023.66;;;6.37;79.12
49611;BME280;35515;48.766;9.176;2023-01-10T10:23:30;99019.09;;;6.29;80.84
49611;BME280;35515;48.766;9.176;2023-01-10T10:26:03;99023.25;;;6.07;81.86
49611;BME280;35515;48.766;9.176;2023-01-10T10:31:43;99022.91;;;6.10;81.52
49611;BME280;35515;48.766;9.176;2023-01-10T10:34:22;99024.44;;;6.21;80.99
49611;BME280;35515;48.766;9.176;2023-01-10T10:36:52;99027.31;;;6.19;81.38
49611;BME280;35515;48.766;9.176;2023-01-10T10:39:23;99025.84;;;6.33;81.20
49611;BME280;35515;48.766;9.176;2023-01-10T10:41:55;99024.97;;;6.25;81.17
49611;BME280;35515;48.766;9.176;2023-01-10T10:44:36;99022.00;;;6.52;79.25
49611;BME280;35515;48.766;9.176;2023-01-10T10:47:12;99018.94;;;6.31;81.30
49611;BME280;35515;48.766;9.176;2023-01-10T10:49:43;99004.78;;;6.29;81.59
49611;BME280;35515;48.766;9.176;2023-01-10T10:52:16;99008.00;;;6.32;81.56
49611;BME280;35515;48.766;9.176;2023-01-10T10:54:44;99006.03;;;6.67;78.33
49611;BME280;35515;48.766;9.176;2023-01-10T10:57:11;99003.66;;;6.48;80.14
49611;BME280;35515;48.766;9.176;2023-01-10T10:59:38;99014.44;;;6.64;78.46
49611;BME280;35515;48.766;9.176;2023-01-10T11:02:18;99006.53;;;6.63;78.25
49611;BME280;35515;48.766;9.176;2023-01-10T11:04:48;99008.19;;;6.31;78.86
49611;BME280;35515;48.766;9.176;2023-01-10T11:07:17;99022.34;;;6.49;78.91
49611;BME280;35515;48.766;9.176;2023-01-10T11:09:45;99023.69;;;6.45;79.98
49611;BME280;35515;48.766;9.176;2023-01-10T11:12:17;99020.28;;;6.35;80.22
49611;BME280;35515;48.766;9.176;2023-01-10T11:14:46;99032.09;;;6.50;78.60
49611;BME280;35515;48.766;9.176;2023-01-10T11:17:18;99031.75;;;6.45;79.65
49611;BME280;35515;48.766;9.176;2023-01-10T11:19:58;99025.03;;;6.41;80.40
49611;BME280;35515;48.766;9.176;2023-01-10T11:22:26;99029.53;;;6.24;82.25
49611;BME280;35515;48.766;9.176;2023-01-10T11:24:55;99029.03;;;6.37;80.06
49611;BME280;35515;48.766;9.176;2023-01-10T11:27:25;99032.03;;;6.26;80.31
49611;BME280;35515;48.766;9.176;2023-01-10T11:29:57;99030.53;;;6.31;82.36
49611;BME280;35515;48.766;9.176;2023-01-10T11:32:31;99032.78;;;6.52;79.22
49611;BME280;35515;48.766;9.176;2023-01-10T11:35:01;99026.72;;;6.75;77.09
49611;BME280;35515;48.766;9.176;2023-01-10T11:37:30;99034.47;;;6.53;77.71
49611;BME280;35515;48.766;9.176;2023-01-10T11:40:24;99032.28;;;6.57;78.65
49611;BME280;35515;48.766;9.176;2023-01-10T11:42:52;99017.78;;;6.42;78.76
49611;BME280;35515;48.766;9.176;2023-01-10T11:45:22;99020.31;;;6.51;77.42
49611;BME280;35515;48.766;9.176;2023-01-10T11:47:51;99011.56;;;6.58;77.42
49611;BME280;35515;48.766;9.176;2023-01-10T11:50:24;99003.84;;;6.71;77.50
49611;BME280;35515;48.766;9.176;2023-01-10T11:52:51;99010.88;;;6.56;76.49
49611;BME280;35515;48.766;9.176;2023-01-10T11:55:19;99007.53;;;6.53;77.50
49611;BME280;35515;48.766;9.176;2023-01-10T11:57:54;99004.34;;;6.58;76.84
49611;BME280;35515;48.766;9.176;2023-01-10T12:00:30;99001.16;;;6.63;78.24
49611;BME280;35515;48.766;9.176;2023-01-10T12:02:58;98996.13;;;6.68;77.14
49611;BME280;35515;48.766;9.176;2023-01-10T12:05:27;98992.56;;;6.76;76.44
49611;BME280;35515;48.766;9.176;2023-01-10T12:07:55;98999.63;;;6.68;76.91
49611;BME280;35515;48.766;9.176;2023-01-10T12:10:24;99002.31;;;6.68;77.01
49611;BME280;35515;48.766;9.176;2023-01-10T12:12:53;99010.75;;;6.90;76.05
49611;BME280;35515;48.766;9.176;2023-01-10T12:15:23;99005.53;;;6.80;75.23
49611;BME280;35515;48.766;9.176;2023-01-10T12:17:51;99005.72;;;6.71;76.69
49611;BME280;35515;48.766;9.176;2023-01-10T12:20:20;98994.75;;;6.72;76.00
49611;BME280;35515;48.766;9.176;2023-01-10T12:22:52;98991.06;;;6.90;75.28
49611;BME280;35515;48.766;9.176;2023-01-10T12:25:21;98987.47;;;7.14;71.67
49611;BME280;35515;48.766;9.176;2023-01-10T12:27:50;98980.44;;;6.72;74.56
49611;BME280;35515;48.766;9.176;2023-01-10T12:30:21;98985.00;;;6.79;74.19
49611;BME280;35515;48.766;9.176;2023-01-10T12:32:51;98969.50;;;6.65;75.82
49611;BME280;35515;48.766;9.176;2023-01-10T12:35:24;98967.97;;;6.95;73.04
49611;BME280;35515;48.766;9.176;2023-01-10T12:38:04;98957.03;;;6.89;71.90
49611;BME280;35515;48.766;9.176;2023-01-10T12:40:36;98959.06;;;6.78;70.46
49611;BME280;35515;48.766;9.176;2023-01-10T12:43:13;98953.69;;;6.86;69.65
49611;BME280;35515;48.766;9.176;2023-01-10T12:46:02;98946.63;;;6.85;69.85
49611;BME280;35515;48.766;9.176;2023-01-10T12:48:41;98952.50;;;6.89;70.86
49611;BME280;35515;48.766;9.176;2023-01-10T12:51:14;98957.34;;;7.18;66.70
49611;BME280;35515;48.766;9.176;2023-01-10T12:53:47;98951.31;;;6.92;65.48
49611;BME280;35515;48.766;9.176;2023-01-10T12:56:15;98946.28;;;6.89;66.76
49611;BME280;35515;48.766;9.176;2023-01-10T12:58:45;98958.41;;;6.76;66.14
49611;BME280;35515;48.766;9.176;2023-01-10T13:01:15;98954.63;;;7.10;64.02
49611;BME280;35515;48.766;9.176;2023-01-10T13:03:43;98957.03;;;6.89;65.22
49611;BME280;35515;48.766;9.176;2023-01-10T13:06:15;98960.06;;;6.94;64.78
49611;BME280;35515;48.766;9.176;2023-01-10T13:08:48;98954.63;;;7.10;63.99
49611;BME280;35515;48.766;9.176;2023-01-10T13:11:17;98962.06;;;6.92;65.23
49611;BME280;35515;48.766;9.176;2023-01-10T13:13:51;98962.75;;;6.94;66.31
49611;BME280;35515;48.766;9.176;2023-01-10T13:16:27;98946.94;;;6.99;64.63
49611;BME280;35515;48.766;9.176;2023-01-10T13:18:58;98959.09;;;6.86;66.44
49611;BME280;35515;48.766;9.176;2023-01-10T13:21:26;98961.94;;;6.77;65.68
49611;BME280;35515;48.766;9.176;2023-01-10T13:23:57;98952.34;;;6.66;65.29
49611;BME280;35515;48.766;9.176;2023-01-10T13:26:25;98945.22;;;7.06;63.30
49611;BME280;35515;48.766;9.176;2023-01-10T13:28:54;98956.19;;;7.05;63.92